sensor_id;sensor_type;location;lat;lon;timestamp;temperature;humidity
3976;DHT22;2002;48.812;9.180;2023-02-15T00:01:30;16.20;1.00
3976;DHT22;2002;48.812;9.180;2023-02-15T00:03:56;16.20;1.00
3976;DHT22;2002;48.812;9.180;2023-02-15T00:06:22;16.20;1.00
3976;DHT22;2002;48.812;9.180;2023-02-15T00:08:48;16.20;1.00
3976;DHT22;2002;48.812;9.180;2023-02-15T00:11:16;16.10;1.00
3976;DHT22;2002;48.812;9.180;2023-02-15T00:13:42;16.10;1.00
3976;DHT22;2002;48.812;9.180;2023-02-15T00:16:10;16.10;1.00
3976;DHT22;2002;48.812;9.180;2023-02-15T00:18:39;16.00;1.00
3976;DHT22;2002;48.812;9.180;2023-02-15T00:21:09;15.90;1.00
3976;DHT22;2002;48.812;9.180;2023-02-15T00:23:36;15.90;1.00
3976;DHT22;2002;48.812;9.180;2023-02-15T00:26:10;15.80;1.00
3976;DHT22;2002;48.812;9.180;2023-02-15T00:28:36;15.80;1.00
3976;DHT22;2002;48.812;9.180;2023-02-15T00:31:07;15.70;1.00
3976;DHT22;2002;48.812;9.180;2023-02-15T00:33:34;15.80;1.00
3976;DHT22;2002;48.812;9.180;2023-02-15T00:36:02;15.70;1.00
3976;DHT22;2002;48.812;9.180;2023-02-15T00:38:28;15.70;1.00
3976;DHT22;2002;48.812;9.180;2023-02-15T00:40:59;15.70;1.00
3976;DHT22;2002;48.812;9.180;2023-02-15T00:43:27;15.60;1.00
3976;DHT22;2002;48.812;9.180;2023-02-15T00:45:52;15.60;1.00
3976;DHT22;2002;48.812;9.180;2023-02-15T00:48:19;15.50;1.00
3976;DHT22;2002;48.812;9.180;2023-02-15T00:50:46;15.60;1.00
3976;DHT22;2002;48.812;9.180;2023-02-15T00:53:12;15.50;1.00
3976;DHT22;2002;48.812;9.180;2023-02-15T00:55:38;15.50;1.00
3976;DHT22;2002;48.812;9.180;2023-02-15T00:58:05;15.50;1.00
3976;DHT22;2002;48.812;9.180;2023-02-15T01:00:31;15.50;1.00
3976;DHT22;2002;48.812;9.180;2023-02-15T01:02:57;15.40;1.00
3976;DHT22;2002;48.812;9.180;2023-02-15T01:05:22;15.50;1.00
3976;DHT22;2002;48.812;9.180;2023-02-15T01:07:48;15.70;1.00
3976;DHT22;2002;48.812;9.180;2023-02-15T01:10:13;15.90;1.00
3976;DHT22;2002;48.812;9.180;2023-02-15T01:12:39;16.10;1.00
3976;DHT22;2002;48.812;9.180;2023-02-15T01:15:04;16.10;1.00
3976;DHT22;2002;48.812;9.180;2023-02-15T01:17:31;16.20;1.00
3976;DHT22;2002;48.812;9.180;2023-02-15T01:19:56;16.20;1.00
3976;DHT22;2002;48.812;9.180;2023-02-15T01:22:22;16.10;1.00
3976;DHT22;2002;48.812;9.180;2023-02-15T01:24:49;16.10;1.00
3976;DHT22;2002;48.812;9.180;2023-02-15T01:27:15;16.10;1.00
3976;DHT22;2002;48.812;9.180;2023-02-15T01:29:40;16.10;1.00
3976;DHT22;2002;48.812;9.180;2023-02-15T01:32:06;16.00;1.00
3976;DHT22;2002;48.812;9.180;2023-02-15T01:34:31;15.90;1.00
3976;DHT22;2002;48.812;9.180;2023-02-15T01:36:57;15.90;1.00
3976;DHT22;2002;48.812;9.180;2023-02-15T01:39:22;15.80;1.00
3976;DHT22;2002;48.812;9.180;2023-02-15T01:41:48;15.80;1.00
3976;DHT22;2002;48.812;9.180;2023-02-15T01:47:40;15.70;1.00
3976;DHT22;2002;48.812;9.180;2023-02-15T01:50:26;15.70;1.00
3976;DHT22;2002;48.812;9.180;2023-02-15T01:55:22;15.60;1.00
3976;DHT22;2002;48.812;9.180;2023-02-15T01:57:49;15.50;1.00
3976;DHT22;2002;48.812;9.180;2023-02-15T02:00:15;15.60;1.00
3976;DHT22;2002;48.812;9.180;2023-02-15T02:02:43;15.50;1.00
3976;DHT22;2002;48.812;9.180;2023-02-15T02:05:10;15.50;1.00
3976;DHT22;2002;48.812;9.180;2023-02-15T02:07:39;15.50;1.00
3976;DHT22;2002;48.812;9.180;2023-02-15T02:10:07;15.50;1.00
3976;DHT22;2002;48.812;9.180;2023-02-15T02:12:36;15.40;1.00
3976;DHT22;2002;48.812;9.180;2023-02-15T02:15:04;15.50;1.00
3976;DHT22;2002;48.812;9.180;2023-02-15T02:20:25;15.80;1.00
3976;DHT22;2002;48.812;9.180;2023-02-15T02:25:54;16.20;1.00
3976;DHT22;2002;48.812;9.180;2023-02-15T02:28:48;16.20;1.00
3976;DHT22;2002;48.812;9.180;2023-02-15T02:34:28;16.10;1.00
3976;DHT22;2002;48.812;9.180;2023-02-15T02:39:55;16.00;1.00
3976;DHT22;2002;48.812;9.180;2023-02-15T02:42:40;16.00;1.00
3976;DHT22;2002;48.812;9.180;2023-02-15T02:45:15;15.90;1.00
3976;DHT22;2002;48.812;9.180;2023-02-15T02:47:46;15.90;1.00
3976;DHT22;2002;48.812;9.180;2023-02-15T02:50:16;15.90;1.00
3976;DHT22;2002;48.812;9.180;2023-02-15T02:52:45;15.80;1.00
3976;DHT22;2002;48.812;9.180;2023-02-15T02:57:52;15.70;1.00
3976;DHT22;2002;48.812;9.180;2023-02-15T03:00:21;15.70;1.00
3976;DHT22;2002;48.812;9.180;2023-02-15T03:02:49;15.60;1.00
3976;DHT22;2002;48.812;9.180;2023-02-15T03:05:20;15.60;1.00
3976;DHT22;2002;48.812;9.180;2023-02-15T03:07:48;15.50;1.00
3976;DHT22;2002;48.812;9.180;2023-02-15T03:10:15;15.50;1.00
3976;DHT22;2002;48.812;9.180;2023-02-15T03:12:43;15.60;1.00
3976;DHT22;2002;48.812;9.180;2023-02-15T03:15:13;15.50;1.00
3976;DHT22;2002;48.812;9.180;2023-02-15T03:17:43;15.50;1.00
3976;DHT22;2002;48.812;9.180;2023-02-15T03:20:18;15.50;1.00
3976;DHT22;2002;48.812;9.180;2023-02-15T03:22:58;15.40;1.00
3976;DHT22;2002;48.812;9.180;2023-02-15T03:25:32;15.40;1.00
3976;DHT22;2002;48.812;9.180;2023-02-15T03:28:03;15.40;1.00
3976;DHT22;2002;48.812;9.180;2023-02-15T03:30:31;15.50;1.00
3976;DHT22;2002;48.812;9.180;2023-02-15T03:32:59;15.60;1.00
3976;DHT22;2002;48.812;9.180;2023-02-15T03:35:29;15.80;1.00
3976;DHT22;2002;48.812;9.180;2023-02-15T03:38:00;16.00;1.00
3976;DHT22;2002;48.812;9.180;2023-02-15T03:40:33;16.20;1.00
3976;DHT22;2002;48.812;9.180;2023-02-15T03:43:30;16.30;1.00
3976;DHT22;2002;48.812;9.180;2023-02-15T03:46:12;16.30;1.00
3976;DHT22;2002;48.812;9.180;2023-02-15T03:48:46;16.30;1.00
3976;DHT22;2002;48.812;9.180;2023-02-15T03:51:16;16.20;1.00
3976;DHT22;2002;48.812;9.180;2023-02-15T03:54:19;16.20;1.00
3976;DHT22;2002;48.812;9.180;2023-02-15T03:57:07;16.10;1.00
3976;DHT22;2002;48.812;9.180;2023-02-15T03:59:53;16.00;1.00
3976;DHT22;2002;48.812;9.180;2023-02-15T04:05:22;15.90;1.00
3976;DHT22;2002;48.812;9.180;2023-02-15T04:07:48;15.90;1.00
3976;DHT22;2002;48.812;9.180;2023-02-15T04:10:13;15.90;1.00
3976;DHT22;2002;48.812;9.180;2023-02-15T04:12:57;15.80;1.00
3976;DHT22;2002;48.812;9.180;2023-02-15T04:15:23;15.70;1.00
3976;DHT22;2002;48.812;9.180;2023-02-15T04:18:07;15.70;1.00
3976;DHT22;2002;48.812;9.180;2023-02-15T04:20:33;15.70;1.00
3976;DHT22;2002;48.812;9.180;2023-02-15T04:23:17;15.60;1.00
3976;DHT22;2002;48.812;9.180;2023-02-15T04:26:03;15.60;1.00
3976;DHT22;2002;48.812;9.180;2023-02-15T04:28:32;15.50;1.00
3976;DHT22;2002;48.812;9.180;2023-02-15T04:30:58;15.50;1.00
3976;DHT22;2002;48.812;9.180;2023-02-15T04:33:23;15.50;1.00
3976;DHT22;2002;48.812;9.180;2023-02-15T04:35:49;15.50;1.00
3976;DHT22;2002;48.812;9.180;2023-02-15T04:38:14;15.50;1.00
3976;DHT22;2002;48.812;9.180;2023-02-15T04:40:40;15.40;1.00
3976;DHT22;2002;48.812;9.180;2023-02-15T04:43:05;15.40;1.00
3976;DHT22;2002;48.812;9.180;2023-02-15T04:45:31;15.40;1.00
3976;DHT22;2002;48.812;9.180;2023-02-15T04:47:56;15.40;1.00
3976;DHT22;2002;48.812;9.180;2023-02-15T04:50:22;15.50;1.00
3976;DHT22;2002;48.812;9.180;2023-02-15T04:52:48;15.40;1.00
3976;DHT22;2002;48.812;9.180;2023-02-15T04:55:13;15.50;1.00
3976;DHT22;2002;48.812;9.180;2023-02-15T04:57:39;15.70;1.00
3976;DHT22;2002;48.812;9.180;2023-02-15T05:00:05;16.10;1.00
3976;DHT22;2002;48.812;9.180;2023-02-15T05:02:31;16.30;1.00
3976;DHT22;2002;48.812;9.180;2023-02-15T05:04:57;16.50;1.00
3976;DHT22;2002;48.812;9.180;2023-02-15T05:07:22;16.50;1.00
3976;DHT22;2002;48.812;9.180;2023-02-15T05:09:48;16.50;1.00
3976;DHT22;2002;48.812;9.180;2023-02-15T05:12:13;16.50;1.00
3976;DHT22;2002;48.812;9.180;2023-02-15T05:14:39;16.40;1.00
3976;DHT22;2002;48.812;9.180;2023-02-15T05:17:04;16.40;1.00
3976;DHT22;2002;48.812;9.180;2023-02-15T05:19:30;16.30;1.00
3976;DHT22;2002;48.812;9.180;2023-02-15T05:21:56;16.30;1.00
3976;DHT22;2002;48.812;9.180;2023-02-15T05:24:22;16.20;1.00
3976;DHT22;2002;48.812;9.180;2023-02-15T05:27:06;16.20;1.00
3976;DHT22;2002;48.812;9.180;2023-02-15T05:29:50;16.10;1.00
3976;DHT22;2002;48.812;9.180;2023-02-15T05:32:15;16.10;1.00
3976;DHT22;2002;48.812;9.180;2023-02-15T05:34:41;16.00;1.00
3976;DHT22;2002;48.812;9.180;2023-02-15T05:37:06;16.00;1.00
3976;DHT22;2002;48.812;9.180;2023-02-15T05:39:33;15.90;1.00
3976;DHT22;2002;48.812;9.180;2023-02-15T05:41:59;15.90;1.00
3976;DHT22;2002;48.812;9.180;2023-02-15T05:44:25;15.90;1.00
3976;DHT22;2002;48.812;9.180;2023-02-15T05:46:51;15.90;1.00
3976;DHT22;2002;48.812;9.180;2023-02-15T05:49:16;15.80;1.00
3976;DHT22;2002;48.812;9.180;2023-02-15T05:51:42;15.80;1.00
3976;DHT22;2002;48.812;9.180;2023-02-15T05:54:07;15.80;1.00
3976;DHT22;2002;48.812;9.180;2023-02-15T05:56:33;15.70;1.00
3976;DHT22;2002;48.812;9.180;2023-02-15T05:58:58;15.70;1.00
3976;DHT22;2002;48.812;9.180;2023-02-15T06:01:24;15.70;1.00
3976;DHT22;2002;48.812;9.180;2023-02-15T06:03:50;15.70;1.00
3976;DHT22;2002;48.812;9.180;2023-02-15T06:06:16;15.70;1.00
3976;DHT22;2002;48.812;9.180;2023-02-15T06:08:42;15.70;1.00
3976;DHT22;2002;48.812;9.180;2023-02-15T06:11:07;15.70;1.00
3976;DHT22;2002;48.812;9.180;2023-02-15T06:13:34;15.70;1.00
3976;DHT22;2002;48.812;9.180;2023-02-15T06:16:00;15.70;1.00
3976;DHT22;2002;48.812;9.180;2023-02-15T06:18:27;15.70;1.00
3976;DHT22;2002;48.812;9.180;2023-02-15T06:20:53;15.70;1.00
3976;DHT22;2002;48.812;9.180;2023-02-15T06:23:18;15.70;1.00
3976;DHT22;2002;48.812;9.180;2023-02-15T06:25:45;15.70;1.00
3976;DHT22;2002;48.812;9.180;2023-02-15T06:28:11;15.80;1.00
3976;DHT22;2002;48.812;9.180;2023-02-15T06:30:37;16.10;1.00
3976;DHT22;2002;48.812;9.180;2023-02-15T06:33:03;16.50;1.00
3976;DHT22;2002;48.812;9.180;2023-02-15T06:35:28;16.60;1.00
3976;DHT22;2002;48.812;9.180;2023-02-15T06:37:54;16.60;1.00
3976;DHT22;2002;48.812;9.180;2023-02-15T06:40:19;16.60;1.00
3976;DHT22;2002;48.812;9.180;2023-02-15T06:42:45;16.50;1.00
3976;DHT22;2002;48.812;9.180;2023-02-15T06:45:11;16.50;1.00
3976;DHT22;2002;48.812;9.180;2023-02-15T06:47:37;16.40;1.00
3976;DHT22;2002;48.812;9.180;2023-02-15T06:50:06;16.30;1.00
3976;DHT22;2002;48.812;9.180;2023-02-15T06:52:33;16.30;1.00
3976;DHT22;2002;48.812;9.180;2023-02-15T06:54:58;16.20;1.00
3976;DHT22;2002;48.812;9.180;2023-02-15T06:57:24;16.10;1.00
3976;DHT22;2002;48.812;9.180;2023-02-15T06:59:49;16.10;1.00
3976;DHT22;2002;48.812;9.180;2023-02-15T07:02:15;16.00;1.00
3976;DHT22;2002;48.812;9.180;2023-02-15T07:04:41;16.00;1.00
3976;DHT22;2002;48.812;9.180;2023-02-15T07:07:11;15.90;1.00
3976;DHT22;2002;48.812;9.180;2023-02-15T07:09:38;15.90;1.00
3976;DHT22;2002;48.812;9.180;2023-02-15T07:12:04;15.90;1.00
3976;DHT22;2002;48.812;9.180;2023-02-15T07:14:48;15.80;1.00
3976;DHT22;2002;48.812;9.180;2023-02-15T07:17:13;15.80;1.00
3976;DHT22;2002;48.812;9.180;2023-02-15T07:19:39;15.80;1.00
3976;DHT22;2002;48.812;9.180;2023-02-15T07:22:05;15.70;1.00
3976;DHT22;2002;48.812;9.180;2023-02-15T07:24:30;15.70;1.00
3976;DHT22;2002;48.812;9.180;2023-02-15T07:26:56;15.80;1.00
3976;DHT22;2002;48.812;9.180;2023-02-15T07:29:23;15.80;1.00
3976;DHT22;2002;48.812;9.180;2023-02-15T07:31:48;15.70;1.00
3976;DHT22;2002;48.812;9.180;2023-02-15T07:34:14;15.70;1.00
3976;DHT22;2002;48.812;9.180;2023-02-15T07:36:39;15.70;1.00
3976;DHT22;2002;48.812;9.180;2023-02-15T07:39:05;15.80;1.00
3976;DHT22;2002;48.812;9.180;2023-02-15T07:41:31;15.70;1.00
3976;DHT22;2002;48.812;9.180;2023-02-15T07:43:56;15.70;1.00
3976;DHT22;2002;48.812;9.180;2023-02-15T07:46:22;15.70;1.00
3976;DHT22;2002;48.812;9.180;2023-02-15T07:48:48;15.80;1.00
3976;DHT22;2002;48.812;9.180;2023-02-15T07:51:14;15.70;1.00
3976;DHT22;2002;48.812;9.180;2023-02-15T07:53:41;15.70;1.00
3976;DHT22;2002;48.812;9.180;2023-02-15T07:56:10;15.70;1.00
3976;DHT22;2002;48.812;9.180;2023-02-15T07:58:37;15.70;1.00
3976;DHT22;2002;48.812;9.180;2023-02-15T08:01:27;15.80;1.00
3976;DHT22;2002;48.812;9.180;2023-02-15T08:03:55;15.70;1.00
3976;DHT22;2002;48.812;9.180;2023-02-15T08:06:22;15.70;1.00
3976;DHT22;2002;48.812;9.180;2023-02-15T08:08:48;15.70;1.00
3976;DHT22;2002;48.812;9.180;2023-02-15T08:11:27;15.70;1.00
3976;DHT22;2002;48.812;9.180;2023-02-15T08:14:39;15.90;1.00
3976;DHT22;2002;48.812;9.180;2023-02-15T08:16:59;16.40;1.00
3976;DHT22;2002;48.812;9.180;2023-02-15T08:19:32;16.70;1.00
3976;DHT22;2002;48.812;9.180;2023-02-15T08:22:00;16.70;1.00
3976;DHT22;2002;48.812;9.180;2023-02-15T08:24:28;16.70;1.00
3976;DHT22;2002;48.812;9.180;2023-02-15T08:26:55;16.60;1.00
3976;DHT22;2002;48.812;9.180;2023-02-15T08:29:23;16.50;1.00
3976;DHT22;2002;48.812;9.180;2023-02-15T08:31:52;16.40;1.00
3976;DHT22;2002;48.812;9.180;2023-02-15T08:34:19;16.30;1.00
3976;DHT22;2002;48.812;9.180;2023-02-15T08:36:46;16.30;1.00
3976;DHT22;2002;48.812;9.180;2023-02-15T08:39:12;16.20;1.00
3976;DHT22;2002;48.812;9.180;2023-02-15T08:41:43;16.10;1.00
3976;DHT22;2002;48.812;9.180;2023-02-15T08:44:09;16.10;1.00
3976;DHT22;2002;48.812;9.180;2023-02-15T08:46:37;16.00;1.00
3976;DHT22;2002;48.812;9.180;2023-02-15T08:49:04;16.00;1.00
3976;DHT22;2002;48.812;9.180;2023-02-15T08:51:32;15.90;1.00
3976;DHT22;2002;48.812;9.180;2023-02-15T08:54:00;15.90;1.00
3976;DHT22;2002;48.812;9.180;2023-02-15T08:56:28;15.90;1.00
3976;DHT22;2002;48.812;9.180;2023-02-15T08:58:54;15.80;1.00
3976;DHT22;2002;48.812;9.180;2023-02-15T09:01:23;15.80;1.00
3976;DHT22;2002;48.812;9.180;2023-02-15T09:03:51;15.80;1.00
3976;DHT22;2002;48.812;9.180;2023-02-15T09:06:21;15.80;1.00
3976;DHT22;2002;48.812;9.180;2023-02-15T09:08:48;15.70;1.00
3976;DHT22;2002;48.812;9.180;2023-02-15T09:11:19;15.70;1.00
3976;DHT22;2002;48.812;9.180;2023-02-15T09:13:59;15.70;1.00
3976;DHT22;2002;48.812;9.180;2023-02-15T09:16:28;15.70;1.00
3976;DHT22;2002;48.812;9.180;2023-02-15T09:18:54;15.80;1.00
3976;DHT22;2002;48.812;9.180;2023-02-15T09:21:23;15.70;1.00
3976;DHT22;2002;48.812;9.180;2023-02-15T09:23:51;15.70;1.00
3976;DHT22;2002;48.812;9.180;2023-02-15T09:26:19;15.70;1.00
3976;DHT22;2002;48.812;9.180;2023-02-15T09:28:46;15.70;1.00
3976;DHT22;2002;48.812;9.180;2023-02-15T09:31:17;15.70;1.00
3976;DHT22;2002;48.812;9.180;2023-02-15T09:33:45;15.70;1.00
3976;DHT22;2002;48.812;9.180;2023-02-15T09:36:32;15.70;1.00
3976;DHT22;2002;48.812;9.180;2023-02-15T09:50:18;15.70;1.00
3976;DHT22;2002;48.812;9.180;2023-02-15T09:55:55;15.70;1.00
3976;DHT22;2002;48.812;9.180;2023-02-15T10:06:59;16.70;1.00
3976;DHT22;2002;48.812;9.180;2023-02-15T10:09:35;16.70;1.00
3976;DHT22;2002;48.812;9.180;2023-02-15T10:15:09;16.50;1.00
3976;DHT22;2002;48.812;9.180;2023-02-15T10:23:39;16.20;1.00
3976;DHT22;2002;48.812;9.180;2023-02-15T10:29:02;16.10;1.00
3976;DHT22;2002;48.812;9.180;2023-02-15T10:34:18;16.00;1.00
3976;DHT22;2002;48.812;9.180;2023-02-15T10:37:09;15.90;1.00
3976;DHT22;2002;48.812;9.180;2023-02-15T10:40:02;15.90;1.00
3976;DHT22;2002;48.812;9.180;2023-02-15T10:53:31;15.70;1.00
3976;DHT22;2002;48.812;9.180;2023-02-15T10:59:00;15.70;1.00
3976;DHT22;2002;48.812;9.180;2023-02-15T11:07:04;15.80;1.00
3976;DHT22;2002;48.812;9.180;2023-02-15T11:09:50;15.70;1.00
3976;DHT22;2002;48.812;9.180;2023-02-15T11:12:24;15.70;1.00
3976;DHT22;2002;48.812;9.180;2023-02-15T11:15:09;15.70;1.00
3976;DHT22;2002;48.812;9.180;2023-02-15T11:17:43;15.70;1.00
3976;DHT22;2002;48.812;9.180;2023-02-15T11:21:11;15.70;1.00
3976;DHT22;2002;48.812;9.180;2023-02-15T11:23:13;15.60;1.00
3976;DHT22;2002;48.812;9.180;2023-02-15T11:25:43;15.60;1.00
3976;DHT22;2002;48.812;9.180;2023-02-15T11:28:18;15.70;1.00
3976;DHT22;2002;48.812;9.180;2023-02-15T11:30:49;15.60;1.00
3976;DHT22;2002;48.812;9.180;2023-02-15T11:36:40;15.60;1.00
3976;DHT22;2002;48.812;9.180;2023-02-15T11:39:13;15.70;1.00
3976;DHT22;2002;48.812;9.180;2023-02-15T11:41:53;15.90;1.00
3976;DHT22;2002;48.812;9.180;2023-02-15T11:44:30;16.30;1.00
3976;DHT22;2002;48.812;9.180;2023-02-15T11:46:58;16.70;1.00
3976;DHT22;2002;48.812;9.180;2023-02-15T11:49:31;16.90;1.00
3976;DHT22;2002;48.812;9.180;2023-02-15T11:51:58;16.90;1.00
3976;DHT22;2002;48.812;9.180;2023-02-15T11:54:31;16.90;1.00
3976;DHT22;2002;48.812;9.180;2023-02-15T11:59:40;16.70;1.00
3976;DHT22;2002;48.812;9.180;2023-02-15T12:02:16;16.60;1.00
3976;DHT22;2002;48.812;9.180;2023-02-15T12:04:44;16.50;1.00
3976;DHT22;2002;48.812;9.180;2023-02-15T12:12:29;16.30;1.00
3976;DHT22;2002;48.812;9.180;2023-02-15T12:14:57;16.20;1.00
3976;DHT22;2002;48.812;9.180;2023-02-15T12:17:26;16.10;1.00
3976;DHT22;2002;48.812;9.180;2023-02-15T12:19:56;16.10;1.00
3976;DHT22;2002;48.812;9.180;2023-02-15T12:22:33;16.00;1.00
3976;DHT22;2002;48.812;9.180;2023-02-15T12:25:01;16.00;1.00
3976;DHT22;2002;48.812;9.180;2023-02-15T12:27:29;15.90;1.00
3976;DHT22;2002;48.812;9.180;2023-02-15T12:33:13;15.80;1.00
3976;DHT22;2002;48.812;9.180;2023-02-15T12:35:41;15.80;1.00
3976;DHT22;2002;48.812;9.180;2023-02-15T12:40:37;15.70;1.00
3976;DHT22;2002;48.812;9.180;2023-02-15T12:43:03;15.70;1.00
3976;DHT22;2002;48.812;9.180;2023-02-15T12:45:36;15.70;1.00
3976;DHT22;2002;48.812;9.180;2023-02-15T12:48:20;15.70;1.00
3976;DHT22;2002;48.812;9.180;2023-02-15T12:50:48;15.70;1.00
3976;DHT22;2002;48.812;9.180;2023-02-15T12:55:53;15.70;1.00
3976;DHT22;2002;48.812;9.180;2023-02-15T12:58:20;15.70;1.00
3976;DHT22;2002;48.812;9.180;2023-02-15T13:00:46;15.70;1.00
3976;DHT22;2002;48.812;9.180;2023-02-15T13:03:21;15.70;1.00
3976;DHT22;2002;48.812;9.180;2023-02-15T13:05:55;15.70;1.00
3976;DHT22;2002;48.812;9.180;2023-02-15T13:08:31;15.70;1.00
3976;DHT22;2002;48.812;9.180;2023-02-15T13:11:02;15.70;1.00
3976;DHT22;2002;48.812;9.180;2023-02-15T13:13:33;15.70;1.00
3976;DHT22;2002;48.812;9.180;2023-02-15T13:16:11;15.70;1.00
3976;DHT22;2002;48.812;9.180;2023-02-15T13:18:45;15.70;1.00
3976;DHT22;2002;48.812;9.180;2023-02-15T13:21:15;15.60;1.00
3976;DHT22;2002;48.812;9.180;2023-02-15T13:23:48;15.70;1.00
3976;DHT22;2002;48.812;9.180;2023-02-15T13:26:18;15.60;1.00
3976;DHT22;2002;48.812;9.180;2023-02-15T13:28:47;15.80;1.00
3976;DHT22;2002;48.812;9.180;2023-02-15T13:31:17;16.20;1.00
3976;DHT22;2002;48.812;9.180;2023-02-15T13:33:49;16.60;1.00
3976;DHT22;2002;48.812;9.180;2023-02-15T13:48:24;16.70;1.00
3976;DHT22;2002;48.812;9.180;2023-02-15T13:50:51;16.70;1.00
3976;DHT22;2002;48.812;9.180;2023-02-15T13:55:55;16.50;1.00
3976;DHT22;2002;48.812;9.180;2023-02-15T13:59:02;16.40;1.00
3976;DHT22;2002;48.812;9.180;2023-02-15T14:09:36;16.10;1.00
3976;DHT22;2002;48.812;9.180;2023-02-15T14:15:09;16.00;1.00
3976;DHT22;2002;48.812;9.180;2023-02-15T14:18:12;15.90;1.00
3976;DHT22;2002;48.812;9.180;2023-02-15T14:29:32;15.80;1.00
3976;DHT22;2002;48.812;9.180;2023-02-15T14:32:11;15.70;1.00
3976;DHT22;2002;48.812;9.180;2023-02-15T14:34:52;15.70;1.00
3976;DHT22;2002;48.812;9.180;2023-02-15T14:46:09;15.70;1.00
3976;DHT22;2002;48.812;9.180;2023-02-15T14:48:57;15.70;1.00
3976;DHT22;2002;48.812;9.180;2023-02-15T15:02:20;15.70;1.00
3976;DHT22;2002;48.812;9.180;2023-02-15T15:05:23;15.60;1.00
3976;DHT22;2002;48.812;9.180;2023-02-15T15:07:52;15.60;1.00
3976;DHT22;2002;48.812;9.180;2023-02-15T15:12:53;15.80;1.00
3976;DHT22;2002;48.812;9.180;2023-02-15T15:25:43;16.90;1.00
3976;DHT22;2002;48.812;9.180;2023-02-15T15:34:28;16.70;1.00
3976;DHT22;2002;48.812;9.180;2023-02-15T15:37:30;16.50;1.00
3976;DHT22;2002;48.812;9.180;2023-02-15T15:44:00;16.40;1.00
3976;DHT22;2002;48.812;9.180;2023-02-15T15:49:37;16.20;1.00
3976;DHT22;2002;48.812;9.180;2023-02-15T15:52:12;16.10;1.00
3976;DHT22;2002;48.812;9.180;2023-02-15T15:54:40;16.00;1.00
3976;DHT22;2002;48.812;9.180;2023-02-15T15:57:17;16.00;1.00
3976;DHT22;2002;48.812;9.180;2023-02-15T15:59:45;15.90;1.00
3976;DHT22;2002;48.812;9.180;2023-02-15T16:02:14;15.90;1.00
3976;DHT22;2002;48.812;9.180;2023-02-15T16:04:42;15.80;1.00
3976;DHT22;2002;48.812;9.180;2023-02-15T16:09:56;15.80;1.00
3976;DHT22;2002;48.812;9.180;2023-02-15T16:12:22;15.70;1.00
3976;DHT22;2002;48.812;9.180;2023-02-15T16:14:48;15.70;1.00
3976;DHT22;2002;48.812;9.180;2023-02-15T16:17:25;15.70;1.00
3976;DHT22;2002;48.812;9.180;2023-02-15T16:19:54;15.70;1.00
3976;DHT22;2002;48.812;9.180;2023-02-15T16:22:24;15.60;1.00
3976;DHT22;2002;48.812;9.180;2023-02-15T16:25:02;15.60;1.00
3976;DHT22;2002;48.812;9.180;2023-02-15T16:27:40;15.60;1.00
3976;DHT22;2002;48.812;9.180;2023-02-15T16:32:41;15.60;1.00
3976;DHT22;2002;48.812;9.180;2023-02-15T16:35:14;15.60;1.00
3976;DHT22;2002;48.812;9.180;2023-02-15T16:37:40;15.60;1.00
3976;DHT22;2002;48.812;9.180;2023-02-15T16:40:06;15.60;1.00
3976;DHT22;2002;48.812;9.180;2023-02-15T16:42:33;15.50;1.00
3976;DHT22;2002;48.812;9.180;2023-02-15T16:45:11;15.60;1.00
3976;DHT22;2002;48.812;9.180;2023-02-15T16:47:44;15.60;1.00
3976;DHT22;2002;48.812;9.180;2023-02-15T16:50:22;15.60;1.00
3976;DHT22;2002;48.812;9.180;2023-02-15T16:52:48;15.60;1.00
3976;DHT22;2002;48.812;9.180;2023-02-15T16:55:23;15.80;1.00
3976;DHT22;2002;48.812;9.180;2023-02-15T16:57:50;16.10;1.00
3976;DHT22;2002;48.812;9.180;2023-02-15T17:00:19;16.30;1.00
3976;DHT22;2002;48.812;9.180;2023-02-15T17:10:36;16.40;1.00
3976;DHT22;2002;48.812;9.180;2023-02-15T17:13:09;16.30;1.00
3976;DHT22;2002;48.812;9.180;2023-02-15T17:18:15;16.20;1.00
3976;DHT22;2002;48.812;9.180;2023-02-15T17:20:43;16.20;1.00
3976;DHT22;2002;48.812;9.180;2023-02-15T17:25:51;16.00;1.00
3976;DHT22;2002;48.812;9.180;2023-02-15T17:28:29;16.00;1.00
3976;DHT22;2002;48.812;9.180;2023-02-15T17:30:55;16.00;1.00
3976;DHT22;2002;48.812;9.180;2023-02-15T17:36:04;15.80;1.00
3976;DHT22;2002;48.812;9.180;2023-02-15T17:38:34;15.90;1.00
3976;DHT22;2002;48.812;9.180;2023-02-15T17:41:00;15.80;1.00
3976;DHT22;2002;48.812;9.180;2023-02-15T17:43:26;15.70;1.00
3976;DHT22;2002;48.812;9.180;2023-02-15T17:45:51;15.70;1.00
3976;DHT22;2002;48.812;9.180;2023-02-15T17:48:39;15.70;1.00
3976;DHT22;2002;48.812;9.180;2023-02-15T17:51:09;15.60;1.00
3976;DHT22;2002;48.812;9.180;2023-02-15T17:53:36;15.60;1.00
3976;DHT22;2002;48.812;9.180;2023-02-15T17:56:02;15.60;1.00
3976;DHT22;2002;48.812;9.180;2023-02-15T17:58:35;15.60;1.00
3976;DHT22;2002;48.812;9.180;2023-02-15T18:01:05;15.60;1.00
3976;DHT22;2002;48.812;9.180;2023-02-15T18:03:52;15.50;1.00
3976;DHT22;2002;48.812;9.180;2023-02-15T18:06:38;15.50;1.00
3976;DHT22;2002;48.812;9.180;2023-02-15T18:09:22;15.50;1.00
3976;DHT22;2002;48.812;9.180;2023-02-15T18:14:47;15.80;1.00
3976;DHT22;2002;48.812;9.180;2023-02-15T18:17:14;16.00;1.00
3976;DHT22;2002;48.812;9.180;2023-02-15T18:19:41;16.10;1.00
3976;DHT22;2002;48.812;9.180;2023-02-15T18:22:10;16.20;1.00
3976;DHT22;2002;48.812;9.180;2023-02-15T18:24:36;16.20;1.00
3976;DHT22;2002;48.812;9.180;2023-02-15T18:27:04;16.30;1.00
3976;DHT22;2002;48.812;9.180;2023-02-15T18:29:30;16.20;1.00
3976;DHT22;2002;48.812;9.180;2023-02-15T18:31:56;16.20;1.00
3976;DHT22;2002;48.812;9.180;2023-02-15T18:34:36;16.20;1.00
3976;DHT22;2002;48.812;9.180;2023-02-15T18:37:04;16.10;1.00
3976;DHT22;2002;48.812;9.180;2023-02-15T18:39:40;16.10;1.00
3976;DHT22;2002;48.812;9.180;2023-02-15T18:42:23;16.00;1.00
3976;DHT22;2002;48.812;9.180;2023-02-15T18:44:52;15.90;1.00
3976;DHT22;2002;48.812;9.180;2023-02-15T18:47:19;15.90;1.00
3976;DHT22;2002;48.812;9.180;2023-02-15T18:49:44;15.90;1.00
3976;DHT22;2002;48.812;9.180;2023-02-15T18:52:16;15.80;1.00
3976;DHT22;2002;48.812;9.180;2023-02-15T18:54:42;15.80;1.00
3976;DHT22;2002;48.812;9.180;2023-02-15T18:57:14;15.70;1.00
3976;DHT22;2002;48.812;9.180;2023-02-15T18:59:40;15.70;1.00
3976;DHT22;2002;48.812;9.180;2023-02-15T19:02:13;15.70;1.00
3976;DHT22;2002;48.812;9.180;2023-02-15T19:04:39;15.70;1.00
3976;DHT22;2002;48.812;9.180;2023-02-15T19:07:05;15.60;1.00
3976;DHT22;2002;48.812;9.180;2023-02-15T19:09:31;15.60;1.00
3976;DHT22;2002;48.812;9.180;2023-02-15T19:11:57;15.60;1.00
3976;DHT22;2002;48.812;9.180;2023-02-15T19:14:29;15.60;1.00
3976;DHT22;2002;48.812;9.180;2023-02-15T19:16:56;15.50;1.00
3976;DHT22;2002;48.812;9.180;2023-02-15T19:19:23;15.50;1.00
3976;DHT22;2002;48.812;9.180;2023-02-15T19:21:49;15.50;1.00
3976;DHT22;2002;48.812;9.180;2023-02-15T19:24:28;15.70;1.00
3976;DHT22;2002;48.812;9.180;2023-02-15T19:26:58;15.80;1.00
3976;DHT22;2002;48.812;9.180;2023-02-15T19:29:26;16.00;1.00
3976;DHT22;2002;48.812;9.180;2023-02-15T19:31:53;16.10;1.00
3976;DHT22;2002;48.812;9.180;2023-02-15T19:34:18;16.20;1.00
3976;DHT22;2002;48.812;9.180;2023-02-15T19:36:51;16.20;1.00
3976;DHT22;2002;48.812;9.180;2023-02-15T19:39:26;16.20;1.00
3976;DHT22;2002;48.812;9.180;2023-02-15T19:41:52;16.10;1.00
3976;DHT22;2002;48.812;9.180;2023-02-15T19:44:18;16.10;1.00
3976;DHT22;2002;48.812;9.180;2023-02-15T19:46:44;16.00;1.00
3976;DHT22;2002;48.812;9.180;2023-02-15T19:49:10;16.00;1.00
3976;DHT22;2002;48.812;9.180;2023-02-15T19:51:36;15.90;1.00
3976;DHT22;2002;48.812;9.180;2023-02-15T19:56:48;15.90;1.00
3976;DHT22;2002;48.812;9.180;2023-02-15T19:59:26;15.80;1.00
3976;DHT22;2002;48.812;9.180;2023-02-15T20:01:53;15.80;1.00
3976;DHT22;2002;48.812;9.180;2023-02-15T20:04:18;15.70;1.00